Time;durP1;ratioP1;P1;durP2;ratioP2;P2;SDS_P1;SDS_P2;PMS_P1;PMS_P2;Temp;Humidity;BMP_temperature;BMP_pressure;BME280_temperature;BME280_humidity;BME280_pressure;Samples;Min_cycle;Max_cycle;Signal;HPM_P1;HPM_P2
2023/04/25 00:00:52;;;;;;;9.80;6.18;;;;;;;;;;4971544;28;20706;-81
2023/04/25 00:03:19;;;;;;;15.93;6.00;;;;;;;;;;4987088;28;20102;-82
2023/04/25 00:05:46;;;;;;;15.43;6.18;;;;;;;;;;4971625;28;20113;-82
2023/04/25 00:08:12;;;;;;;13.70;5.68;;;;;;;;;;4987054;28;20594;-82
2023/04/25 00:10:39;;;;;;;12.07;5.43;;;;;;;;;;4987620;28;20496;-82
2023/04/25 00:13:06;;;;;;;16.92;6.05;;;;;;;;;;4988256;28;20054;-81
2023/04/25 00:15:32;;;;;;;13.85;6.43;;;;;;;;;;4989323;28;20058;-83
2023/04/25 00:17:59;;;;;;;14.18;6.22;;;;;;;;;;4988085;28;20047;-82
2023/04/25 00:20:25;;;;;;;13.50;6.47;;;;;;;;;;4973112;28;20110;-81
2023/04/25 00:22:53;;;;;;;13.27;6.38;;;;;;;;;;4953530;28;20066;-81
2023/04/25 00:25:19;;;;;;;15.90;7.03;;;;;;;;;;4967480;28;20058;-82
2023/04/25 00:27:46;;;;;;;12.52;6.97;;;;;;;;;;4967825;28;20044;-82
2023/04/25 00:30:13;;;;;;;17.52;7.72;;;;;;;;;;4965968;28;20043;-83
2023/04/25 00:32:40;;;;;;;12.32;6.85;;;;;;;;;;4983475;28;20045;-82
2023/04/25 00:35:07;;;;;;;14.85;6.90;;;;;;;;;;4966796;28;20043;-81
2023/04/25 00:37:34;;;;;;;12.70;6.95;;;;;;;;;;4967911;28;20630;-81
2023/04/25 00:40:00;;;;;;;16.05;7.68;;;;;;;;;;4966786;28;20042;-82
2023/04/25 00:42:28;;;;;;;16.77;7.80;;;;;;;;;;4982705;28;20137;-82
2023/04/25 00:44:55;;;;;;;15.63;7.55;;;;;;;;;;4965517;28;20052;-82
2023/04/25 00:47:22;;;;;;;15.80;7.53;;;;;;;;;;4950956;28;20518;-82
2023/04/25 00:49:49;;;;;;;15.77;7.97;;;;;;;;;;4954130;28;20049;-81
2023/04/25 00:52:16;;;;;;;16.95;7.55;;;;;;;;;;4969229;28;20047;-82
2023/04/25 00:54:42;;;;;;;11.65;6.63;;;;;;;;;;4967606;28;20047;-83
2023/04/25 00:57:10;;;;;;;14.80;6.97;;;;;;;;;;4964373;28;20042;-81
2023/04/25 00:59:37;;;;;;;14.40;7.40;;;;;;;;;;4987084;28;20111;-82
2023/04/25 01:02:04;;;;;;;17.30;7.00;;;;;;;;;;4970082;28;20154;-80
2023/04/25 01:04:31;;;;;;;15.88;7.35;;;;;;;;;;4987581;28;20078;-81
2023/04/25 01:06:57;;;;;;;19.67;7.70;;;;;;;;;;4954821;28;20050;-82
2023/04/25 01:09:24;;;;;;;17.90;7.82;;;;;;;;;;4985948;28;20057;-80
2023/04/25 01:11:51;;;;;;;15.48;7.88;;;;;;;;;;4986171;28;20072;-80
2023/04/25 01:14:17;;;;;;;16.55;8.05;;;;;;;;;;4971804;28;20462;-80
2023/04/25 01:16:44;;;;;;;16.17;8.32;;;;;;;;;;4986272;28;20038;-81
2023/04/25 01:19:16;;;;;;;20.83;8.38;;;;;;;;;;4970964;28;20062;-81
2023/04/25 01:21:48;;;;;;;15.30;8.50;;;;;;;;;;4987663;28;20481;-81
2023/04/25 01:24:14;;;;;;;15.95;7.80;;;;;;;;;;4986582;28;20055;-83
2023/04/25 01:26:44;;;;;;;13.25;7.20;;;;;;;;;;4985365;28;20494;-83
2023/04/25 01:29:10;;;;;;;16.98;7.20;;;;;;;;;;4970867;28;20177;-80
2023/04/25 01:31:38;;;;;;;13.63;7.40;;;;;;;;;;4953113;28;20047;-82
2023/04/25 01:34:05;;;;;;;15.75;8.07;;;;;;;;;;4985781;28;20524;-80
2023/04/25 01:36:32;;;;;;;15.30;7.90;;;;;;;;;;4970046;28;20510;-81
2023/04/25 01:39:00;;;;;;;16.15;7.72;;;;;;;;;;4969950;28;20097;-80
2023/04/25 01:41:27;;;;;;;16.85;8.40;;;;;;;;;;4969047;28;20043;-81
2023/04/25 01:43:54;;;;;;;14.88;7.45;;;;;;;;;;4970095;28;20077;-81
2023/04/25 01:46:21;;;;;;;17.05;8.43;;;;;;;;;;4992947;28;20038;-81
2023/04/25 01:48:47;;;;;;;19.85;8.02;;;;;;;;;;4986268;28;20038;-81
2023/04/25 01:51:15;;;;;;;15.98;7.60;;;;;;;;;;4985789;28;20047;-83
2023/04/25 01:53:42;;;;;;;15.05;7.72;;;;;;;;;;4986627;28;20070;-82
2023/04/25 01:56:09;;;;;;;16.08;7.82;;;;;;;;;;4973993;28;20066;-82
2023/04/25 01:58:36;;;;;;;14.55;6.70;;;;;;;;;;4993404;28;20046;-83
2023/04/25 02:01:03;;;;;;;17.58;6.90;;;;;;;;;;4991765;28;20047;-81
2023/04/25 02:03:37;;;;;;;13.02;7.03;;;;;;;;;;4990395;28;20043;-81
2023/04/25 02:06:09;;;;;;;15.45;7.10;;;;;;;;;;4988884;28;20051;-81
2023/04/25 02:08:40;;;;;;;13.35;6.60;;;;;;;;;;4989443;28;20543;-81
2023/04/25 02:11:06;;;;;;;13.13;6.30;;;;;;;;;;4990429;28;20146;-81
2023/04/25 02:13:40;;;;;;;12.25;6.25;;;;;;;;;;4969555;28;20126;-81
2023/04/25 02:16:16;;;;;;;12.02;6.70;;;;;;;;;;4969274;28;20423;-81
2023/04/25 02:18:42;;;;;;;13.40;6.25;;;;;;;;;;4955295;28;20531;-82
2023/04/25 02:21:09;;;;;;;9.95;5.63;;;;;;;;;;4971479;28;20058;-80
2023/04/25 02:23:36;;;;;;;14.32;6.22;;;;;;;;;;4972687;28;20051;-82
2023/04/25 02:26:02;;;;;;;13.27;6.35;;;;;;;;;;4989587;28;20511;-81
2023/04/25 02:28:30;;;;;;;13.38;6.45;;;;;;;;;;4989677;28;20068;-82
2023/04/25 02:30:56;;;;;;;10.93;5.80;;;;;;;;;;4989405;28;20050;-81
2023/04/25 02:33:23;;;;;;;12.43;6.05;;;;;;;;;;5004147;28;20043;-81
2023/04/25 02:35:50;;;;;;;16.00;6.10;;;;;;;;;;4989205;28;20049;-80
2023/04/25 02:38:16;;;;;;;11.90;5.88;;;;;;;;;;4972617;28;20039;-82
2023/04/25 02:40:43;;;;;;;13.73;5.85;;;;;;;;;;4989811;28;20090;-81
2023/04/25 02:43:09;;;;;;;9.75;5.68;;;;;;;;;;4974132;28;20478;-81
2023/04/25 02:45:37;;;;;;;10.02;5.88;;;;;;;;;;4988913;28;20046;-82
2023/04/25 02:48:04;;;;;;;10.50;5.30;;;;;;;;;;4982454;28;20746;-81
2023/04/25 02:50:31;;;;;;;19.05;5.63;;;;;;;;;;4988413;28;20039;-81
2023/04/25 02:52:58;;;;;;;11.75;5.90;;;;;;;;;;4989348;28;20122;-80
2023/04/25 02:55:31;;;;;;;10.68;5.70;;;;;;;;;;4991296;28;20081;-79
2023/04/25 02:58:00;;;;;;;9.93;5.85;;;;;;;;;;4989504;28;20058;-81
2023/04/25 03:00:40;;;;;;;11.52;6.00;;;;;;;;;;4989556;28;20049;-82
2023/04/25 03:03:07;;;;;;;11.43;5.65;;;;;;;;;;4989911;28;20126;-82
2023/04/25 03:05:34;;;;;;;11.45;5.70;;;;;;;;;;4989645;28;20049;-82
2023/04/25 03:08:00;;;;;;;9.82;5.53;;;;;;;;;;4975653;28;20046;-81
2023/04/25 03:10:28;;;;;;;13.32;5.30;;;;;;;;;;4989326;28;20050;-81
2023/04/25 03:12:59;;;;;;;11.30;5.63;;;;;;;;;;4971684;28;20046;-81
2023/04/25 03:15:26;;;;;;;10.73;4.93;;;;;;;;;;4973454;28;20058;-79
2023/04/25 03:17:52;;;;;;;18.45;5.00;;;;;;;;;;4979155;28;20529;-80
2023/04/25 03:20:19;;;;;;;8.77;5.10;;;;;;;;;;4973577;28;20047;-81
2023/04/25 03:22:46;;;;;;;11.45;5.00;;;;;;;;;;4971764;28;20039;-83
2023/04/25 03:25:13;;;;;;;16.02;5.55;;;;;;;;;;4972958;28;20047;-81
2023/04/25 03:27:39;;;;;;;10.07;5.47;;;;;;;;;;4988531;28;20058;-80
2023/04/25 03:30:07;;;;;;;10.48;5.10;;;;;;;;;;4972309;28;20043;-83
2023/04/25 03:32:36;;;;;;;11.70;5.35;;;;;;;;;;4977016;28;20506;-80
2023/04/25 03:35:03;;;;;;;10.35;5.90;;;;;;;;;;4997400;28;20068;-80
2023/04/25 03:37:30;;;;;;;10.85;5.57;;;;;;;;;;5007217;28;20050;-83
2023/04/25 03:39:57;;;;;;;13.18;6.15;;;;;;;;;;5008401;28;20050;-84
2023/04/25 03:42:31;;;;;;;11.18;5.95;;;;;;;;;;4989714;28;20057;-82
2023/04/25 03:44:58;;;;;;;10.45;6.13;;;;;;;;;;4989215;28;20058;-79
2023/04/25 03:47:25;;;;;;;10.13;5.88;;;;;;;;;;4994832;28;20042;-78
2023/04/25 03:49:52;;;;;;;12.70;6.00;;;;;;;;;;5018384;28;20042;-79
2023/04/25 03:52:21;;;;;;;13.57;6.68;;;;;;;;;;5027275;28;20038;-82
2023/04/25 03:54:47;;;;;;;14.55;6.85;;;;;;;;;;5023873;28;20099;-82
2023/04/25 03:57:17;;;;;;;13.20;6.90;;;;;;;;;;4989533;28;20540;-79
2023/04/25 03:59:44;;;;;;;15.98;6.68;;;;;;;;;;4986684;28;20352;-80
2023/04/25 04:02:13;;;;;;;11.70;6.43;;;;;;;;;;4951199;28;20050;-80
2023/04/25 04:04:40;;;;;;;13.55;6.93;;;;;;;;;;4970863;28;20157;-82
2023/04/25 04:07:07;;;;;;;13.30;6.50;;;;;;;;;;4989767;28;20051;-81
2023/04/25 04:09:36;;;;;;;13.35;7.53;;;;;;;;;;4990786;28;20047;-83
2023/04/25 04:12:07;;;;;;;15.23;7.60;;;;;;;;;;4993769;28;20047;-80
2023/04/25 04:14:36;;;;;;;12.60;6.70;;;;;;;;;;4988917;28;20129;-82
2023/04/25 04:17:03;;;;;;;16.05;6.88;;;;;;;;;;4987459;28;20047;-83
2023/04/25 04:19:30;;;;;;;13.73;7.13;;;;;;;;;;4986188;28;20042;-81
2023/04/25 04:22:23;;;;;;;14.75;7.63;;;;;;;;;;4981667;28;20051;-81
2023/04/25 04:24:54;;;;;;;13.60;7.32;;;;;;;;;;4985640;28;20153;-82
2023/04/25 04:27:34;;;;;;;15.85;7.18;;;;;;;;;;4969216;28;20403;-80
2023/04/25 04:30:29;;;;;;;12.65;6.72;;;;;;;;;;4969559;28;20046;-82
2023/04/25 04:32:58;;;;;;;15.18;7.57;;;;;;;;;;4954615;28;20054;-81
2023/04/25 04:35:24;;;;;;;16.38;7.55;;;;;;;;;;4949922;28;20051;-81
2023/04/25 04:37:51;;;;;;;14.75;6.95;;;;;;;;;;4967019;28;20043;-81
2023/04/25 04:40:19;;;;;;;14.07;6.90;;;;;;;;;;4966344;28;20061;-80
2023/04/25 04:43:00;;;;;;;11.75;6.57;;;;;;;;;;4964378;28;20051;-79
2023/04/25 04:45:27;;;;;;;15.15;5.97;;;;;;;;;;4931226;29;20044;-80
2023/04/25 04:48:08;;;;;;;14.45;6.80;;;;;;;;;;4961097;28;20052;-80
2023/04/25 04:50:55;;;;;;;15.52;6.35;;;;;;;;;;4943203;28;20047;-81
2023/04/25 04:53:40;;;;;;;9.63;5.82;;;;;;;;;;4950177;28;20046;-80
2023/04/25 04:56:29;;;;;;;13.65;5.90;;;;;;;;;;4990373;28;20046;-79
2023/04/25 04:59:11;;;;;;;15.02;6.05;;;;;;;;;;4998168;28;20133;-81
2023/04/25 05:01:56;;;;;;;10.82;5.85;;;;;;;;;;4997746;28;20076;-81
2023/04/25 05:04:46;;;;;;;11.20;6.05;;;;;;;;;;5002067;28;20046;-79
2023/04/25 05:07:36;;;;;;;11.85;6.03;;;;;;;;;;5017456;28;20132;-81
2023/04/25 05:10:18;;;;;;;14.95;6.13;;;;;;;;;;5001443;28;20042;-80
2023/04/25 05:13:05;;;;;;;11.50;5.90;;;;;;;;;;5026784;28;20129;-79
2023/04/25 05:15:59;;;;;;;13.00;6.40;;;;;;;;;;4983751;28;20415;-81
2023/04/25 05:18:44;;;;;;;13.38;5.78;;;;;;;;;;4988385;28;20064;-82
2023/04/25 05:21:40;;;;;;;14.07;5.82;;;;;;;;;;4969580;28;20038;-81
2023/04/25 05:24:36;;;;;;;14.15;5.55;;;;;;;;;;4995283;28;20432;-81
2023/04/25 05:27:26;;;;;;;10.07;5.18;;;;;;;;;;5010561;28;20034;-82
2023/04/25 05:30:06;;;;;;;13.32;5.90;;;;;;;;;;5007829;28;20055;-80
2023/04/25 05:32:52;;;;;;;9.30;4.72;;;;;;;;;;4970367;28;20077;-81
2023/04/25 05:35:19;;;;;;;12.50;5.50;;;;;;;;;;4970716;28;20057;-81
2023/04/25 05:37:47;;;;;;;12.52;5.38;;;;;;;;;;5000710;28;20138;-81
2023/04/25 05:40:15;;;;;;;12.98;5.25;;;;;;;;;;5000967;28;20063;-82
2023/04/25 05:43:10;;;;;;;11.75;4.97;;;;;;;;;;4973590;28;20510;-80
2023/04/25 05:45:46;;;;;;;15.32;5.38;;;;;;;;;;4999538;28;20130;-80
2023/04/25 05:48:42;;;;;;;10.55;4.97;;;;;;;;;;4987581;28;20458;-80
2023/04/25 05:51:28;;;;;;;16.15;6.18;;;;;;;;;;4994589;28;20070;-81
2023/04/25 05:54:05;;;;;;;10.38;5.75;;;;;;;;;;4998403;28;20046;-83
2023/04/25 05:56:33;;;;;;;16.52;5.43;;;;;;;;;;4999646;28;20126;-81
2023/04/25 05:59:00;;;;;;;11.00;5.20;;;;;;;;;;4999675;28;20126;-82
2023/04/25 06:01:26;;;;;;;12.32;4.70;;;;;;;;;;4999543;28;20391;-81
2023/04/25 06:03:53;;;;;;;9.98;4.97;;;;;;;;;;5000297;28;20150;-82
2023/04/25 06:06:20;;;;;;;13.25;5.53;;;;;;;;;;5000024;28;20113;-83
2023/04/25 06:08:46;;;;;;;10.57;5.22;;;;;;;;;;5001005;28;20039;-81
2023/04/25 06:11:13;;;;;;;10.85;4.90;;;;;;;;;;4999934;28;20047;-80
2023/04/25 06:13:40;;;;;;;10.80;5.10;;;;;;;;;;4985408;28;20042;-83
2023/04/25 06:16:07;;;;;;;13.93;5.32;;;;;;;;;;4973973;28;20357;-80
2023/04/25 06:18:34;;;;;;;18.08;5.25;;;;;;;;;;5008065;28;20078;-81
2023/04/25 06:21:01;;;;;;;9.50;4.82;;;;;;;;;;5006705;28;20424;-81
2023/04/25 06:23:27;;;;;;;12.68;5.05;;;;;;;;;;5004741;28;20039;-82
2023/04/25 06:26:05;;;;;;;9.77;4.40;;;;;;;;;;5001742;28;20494;-81
2023/04/25 06:28:38;;;;;;;8.73;4.70;;;;;;;;;;5000782;28;20411;-83
2023/04/25 06:31:08;;;;;;;7.43;4.35;;;;;;;;;;4985881;28;20046;-81
2023/04/25 06:33:37;;;;;;;7.88;4.35;;;;;;;;;;4970687;28;20046;-81
2023/04/25 06:36:05;;;;;;;10.05;4.47;;;;;;;;;;4987232;28;20248;-79
2023/04/25 06:38:33;;;;;;;10.45;4.43;;;;;;;;;;4969442;28;20410;-80
2023/04/25 06:41:00;;;;;;;7.03;4.00;;;;;;;;;;4988238;28;20053;-81
2023/04/25 06:43:33;;;;;;;9.00;4.65;;;;;;;;;;4987208;28;20038;-81
2023/04/25 06:46:07;;;;;;;11.40;4.88;;;;;;;;;;4986883;28;20049;-82
2023/04/25 06:48:42;;;;;;;8.85;5.07;;;;;;;;;;4986722;28;20054;-80
2023/04/25 06:51:13;;;;;;;11.75;5.30;;;;;;;;;;4987546;28;20043;-82
2023/04/25 06:53:40;;;;;;;9.10;4.43;;;;;;;;;;4986707;28;20039;-81
2023/04/25 06:56:11;;;;;;;9.43;4.30;;;;;;;;;;4986074;28;20043;-81
2023/04/25 06:58:49;;;;;;;12.48;4.60;;;;;;;;;;4986171;28;20455;-80
2023/04/25 07:01:35;;;;;;;10.73;4.25;;;;;;;;;;5003999;28;20122;-82
2023/04/25 07:04:05;;;;;;;11.13;4.15;;;;;;;;;;5012524;28;20141;-82
2023/04/25 07:06:37;;;;;;;11.38;3.83;;;;;;;;;;5004593;28;20043;-80
2023/04/25 07:09:05;;;;;;;11.70;4.45;;;;;;;;;;5005485;28;20193;-80
2023/04/25 07:11:31;;;;;;;7.95;4.18;;;;;;;;;;5008492;28;20039;-80
2023/04/25 07:13:58;;;;;;;11.18;3.90;;;;;;;;;;5008688;28;20303;-80
2023/04/25 07:16:26;;;;;;;13.35;3.50;;;;;;;;;;4995220;28;20118;-79
2023/04/25 07:18:54;;;;;;;13.32;4.07;;;;;;;;;;5006080;28;20066;-80
2023/04/25 07:21:20;;;;;;;11.98;3.95;;;;;;;;;;4989850;28;20130;-83
2023/04/25 07:23:50;;;;;;;9.20;3.53;;;;;;;;;;5004720;28;20035;-81
2023/04/25 07:26:22;;;;;;;17.88;5.70;;;;;;;;;;5006033;28;20514;-82
2023/04/25 07:29:13;;;;;;;11.45;4.68;;;;;;;;;;5004797;28;20513;-81
2023/04/25 07:31:41;;;;;;;12.75;4.32;;;;;;;;;;5003817;28;20511;-81
2023/04/25 07:34:08;;;;;;;9.57;4.35;;;;;;;;;;5010976;28;20047;-80
2023/04/25 07:36:37;;;;;;;14.27;4.80;;;;;;;;;;5017631;28;20045;-80
2023/04/25 07:39:04;;;;;;;7.60;4.45;;;;;;;;;;5015830;28;20047;-81
2023/04/25 07:41:38;;;;;;;9.18;4.47;;;;;;;;;;5004893;28;20062;-82
2023/04/25 07:44:10;;;;;;;10.13;5.05;;;;;;;;;;5004345;28;20090;-81
2023/04/25 07:46:37;;;;;;;9.95;4.43;;;;;;;;;;5005249;28;20097;-81
2023/04/25 07:49:08;;;;;;;12.63;4.68;;;;;;;;;;5002897;28;20125;-82
2023/04/25 07:51:35;;;;;;;11.73;5.03;;;;;;;;;;4987908;28;20054;-82
2023/04/25 07:54:08;;;;;;;15.95;4.90;;;;;;;;;;5003392;28;20043;-79
2023/04/25 07:56:46;;;;;;;16.48;4.90;;;;;;;;;;4983882;28;20042;-81
2023/04/25 07:59:24;;;;;;;9.52;4.72;;;;;;;;;;5002071;28;20055;-80
2023/04/25 08:01:54;;;;;;;9.80;4.70;;;;;;;;;;5002019;28;20049;-81
2023/04/25 08:04:22;;;;;;;12.77;4.68;;;;;;;;;;5001502;28;20035;-81
2023/04/25 08:06:54;;;;;;;11.05;4.45;;;;;;;;;;5001704;28;20038;-82
2023/04/25 08:09:26;;;;;;;9.07;4.38;;;;;;;;;;5000832;28;20039;-81
2023/04/25 08:11:54;;;;;;;10.90;4.63;;;;;;;;;;4985861;28;20526;-81
2023/04/25 08:14:26;;;;;;;12.55;4.90;;;;;;;;;;4987006;28;20089;-82
2023/04/25 08:16:55;;;;;;;12.75;4.88;;;;;;;;;;5002682;28;20419;-82
2023/04/25 08:19:24;;;;;;;9.65;4.72;;;;;;;;;;4985451;28;20073;-83
2023/04/25 08:21:51;;;;;;;8.68;4.32;;;;;;;;;;5003593;28;20063;-82
2023/04/25 08:24:24;;;;;;;14.75;4.97;;;;;;;;;;5002160;28;20042;-81
2023/04/25 08:26:51;;;;;;;10.43;4.72;;;;;;;;;;4984742;28;20583;-83
2023/04/25 08:29:20;;;;;;;13.18;4.32;;;;;;;;;;5002294;28;20443;-82
2023/04/25 08:31:53;;;;;;;13.55;4.65;;;;;;;;;;4987376;28;20046;-80
2023/04/25 08:34:29;;;;;;;9.88;4.75;;;;;;;;;;5001764;28;20050;-82
2023/04/25 08:36:59;;;;;;;9.00;4.25;;;;;;;;;;4985703;28;20050;-82
2023/04/25 08:39:38;;;;;;;8.65;3.80;;;;;;;;;;5000069;28;20070;-83
2023/04/25 08:42:30;;;;;;;11.23;4.10;;;;;;;;;;4990348;28;20426;-82
2023/04/25 08:44:59;;;;;;;9.45;3.72;;;;;;;;;;5002570;28;20050;-80
2023/04/25 08:47:33;;;;;;;6.72;3.58;;;;;;;;;;5000679;28;20118;-80
2023/04/25 08:50:01;;;;;;;7.68;3.83;;;;;;;;;;4968126;28;20050;-81
2023/04/25 08:52:30;;;;;;;6.47;3.10;;;;;;;;;;5000077;28;20043;-80
2023/04/25 08:54:56;;;;;;;7.00;3.25;;;;;;;;;;5000759;28;20061;-82
2023/04/25 08:57:24;;;;;;;8.10;3.40;;;;;;;;;;4984643;28;20046;-80
2023/04/25 08:59:51;;;;;;;8.50;3.63;;;;;;;;;;4987068;28;20050;-81
2023/04/25 09:02:20;;;;;;;7.22;3.38;;;;;;;;;;5002539;28;20102;-81
2023/04/25 09:04:49;;;;;;;6.60;3.35;;;;;;;;;;5000345;28;20047;-82
2023/04/25 09:07:18;;;;;;;9.25;3.08;;;;;;;;;;5003707;28;20126;-80
2023/04/25 09:09:45;;;;;;;6.05;2.70;;;;;;;;;;5002809;28;20045;-79
2023/04/25 09:12:15;;;;;;;8.57;3.03;;;;;;;;;;4985357;28;20097;-83
2023/04/25 09:14:43;;;;;;;6.55;3.22;;;;;;;;;;5005866;28;20041;-82
2023/04/25 09:17:21;;;;;;;12.10;3.88;;;;;;;;;;4986801;28;20058;-83
2023/04/25 09:19:51;;;;;;;10.85;4.00;;;;;;;;;;4991126;28;20055;-82
2023/04/25 09:22:23;;;;;;;9.20;4.00;;;;;;;;;;4965334;28;20043;-82
2023/04/25 09:24:51;;;;;;;12.88;4.45;;;;;;;;;;4986090;28;20121;-83
2023/04/25 09:27:22;;;;;;;7.63;3.85;;;;;;;;;;4985611;28;20072;-83
2023/04/25 09:30:28;;;;;;;9.30;4.35;;;;;;;;;;4966056;28;20105;-82
2023/04/25 09:33:08;;;;;;;12.02;4.38;;;;;;;;;;4968213;28;20042;-81
2023/04/25 09:36:05;;;;;;;8.13;4.75;;;;;;;;;;4965092;28;20246;-81
2023/04/25 09:38:50;;;;;;;8.85;4.70;;;;;;;;;;4971246;28;20051;-82
2023/04/25 09:41:26;;;;;;;;;;;;;;;;;;4970367;28;20079;-80
2023/04/25 09:43:58;;;;;;;6.95;4.55;;;;;;;;;;4973105;28;19922;-81
2023/04/25 09:46:36;;;;;;;11.25;4.65;;;;;;;;;;4983074;28;20421;-82
2023/04/25 09:49:19;;;;;;;9.85;5.30;;;;;;;;;;4984402;28;20158;-83
2023/04/25 09:52:00;;;;;;;11.88;4.80;;;;;;;;;;4967198;28;20058;-81
2023/04/25 09:54:33;;;;;;;12.32;5.15;;;;;;;;;;4967311;28;20407;-81
2023/04/25 09:57:18;;;;;;;8.95;4.30;;;;;;;;;;4969197;28;20721;-81
2023/04/25 09:59:51;;;;;;;8.93;4.30;;;;;;;;;;4999209;28;20043;-80
2023/04/25 10:02:21;;;;;;;14.02;4.78;;;;;;;;;;5000962;28;20049;-80
2023/04/25 10:04:54;;;;;;;10.48;4.53;;;;;;;;;;5001870;28;20043;-81
2023/04/25 10:07:33;;;;;;;10.05;5.03;;;;;;;;;;4968971;28;20101;-81
2023/04/25 10:10:14;;;;;;;9.77;5.05;;;;;;;;;;5008084;28;20069;-82
2023/04/25 10:13:06;;;;;;;9.85;5.13;;;;;;;;;;4984471;28;20053;-81
2023/04/25 10:15:38;;;;;;;7.88;4.85;;;;;;;;;;4971544;28;20081;-81
2023/04/25 10:18:08;;;;;;;10.48;5.15;;;;;;;;;;4989275;28;20148;-82
2023/04/25 10:20:34;;;;;;;17.75;7.82;;;;;;;;;;4989911;28;20043;-80
2023/04/25 10:23:13;;;;;;;17.13;8.27;;;;;;;;;;4977403;28;20051;-82
2023/04/25 10:25:41;;;;;;;14.45;8.07;;;;;;;;;;5007157;28;20038;-80
2023/04/25 10:28:09;;;;;;;16.00;8.48;;;;;;;;;;5001714;28;20046;-82
2023/04/25 10:30:36;;;;;;;15.93;7.40;;;;;;;;;;5013044;28;20043;-80
2023/04/25 10:33:16;;;;;;;12.73;7.22;;;;;;;;;;5009945;28;20065;-82
2023/04/25 10:35:44;;;;;;;19.35;6.60;;;;;;;;;;5009584;28;20031;-82
2023/04/25 10:38:13;;;;;;;18.58;6.82;;;;;;;;;;5006507;28;20363;-81
2023/04/25 10:40:40;;;;;;;16.33;6.68;;;;;;;;;;4989062;28;20043;-84
2023/04/25 10:43:32;;;;;;;14.55;5.70;;;;;;;;;;4975418;28;20047;-81
2023/04/25 10:46:00;;;;;;;10.63;5.57;;;;;;;;;;5007538;28;20042;-80
2023/04/25 10:48:31;;;;;;;14.55;5.90;;;;;;;;;;5005159;28;20059;-81
2023/04/25 10:51:11;;;;;;;9.35;4.93;;;;;;;;;;4975458;28;20058;-81
2023/04/25 10:53:40;;;;;;;11.63;5.30;;;;;;;;;;5004490;28;20046;-80
2023/04/25 10:56:12;;;;;;;19.33;5.63;;;;;;;;;;4975117;28;20548;-82
2023/04/25 10:58:44;;;;;;;15.50;5.80;;;;;;;;;;4988612;28;20169;-82
2023/04/25 11:01:25;;;;;;;13.68;6.20;;;;;;;;;;4975026;28;20109;-80
2023/04/25 11:03:57;;;;;;;15.40;7.00;;;;;;;;;;4972495;28;20293;-81
2023/04/25 11:06:43;;;;;;;15.07;6.50;;;;;;;;;;4988615;28;20045;-82
2023/04/25 11:09:14;;;;;;;13.95;5.70;;;;;;;;;;5005589;28;20039;-81
2023/04/25 11:11:53;;;;;;;12.52;5.70;;;;;;;;;;4988784;28;20451;-83
2023/04/25 11:14:20;;;;;;;17.83;5.15;;;;;;;;;;4973050;28;20042;-83
2023/04/25 11:16:47;;;;;;;19.08;6.00;;;;;;;;;;4988922;28;20043;-80
2023/04/25 11:19:13;;;;;;;13.98;6.60;;;;;;;;;;4975177;28;20039;-83
2023/04/25 11:21:40;;;;;;;15.10;6.78;;;;;;;;;;5005673;28;20054;-81
2023/04/25 11:24:06;;;;;;;15.45;6.75;;;;;;;;;;4974648;28;20141;-83
2023/04/25 11:26:33;;;;;;;13.95;5.95;;;;;;;;;;5004571;28;20043;-82
2023/04/25 11:29:00;;;;;;;19.70;6.45;;;;;;;;;;4987263;28;20133;-82
2023/04/25 11:31:27;;;;;;;12.00;5.55;;;;;;;;;;4990345;28;20070;-82
2023/04/25 11:33:54;;;;;;;15.48;6.05;;;;;;;;;;4973113;28;20078;-80
2023/04/25 11:36:22;;;;;;;12.20;5.97;;;;;;;;;;4987696;28;20090;-81
2023/04/25 11:38:50;;;;;;;14.18;4.47;;;;;;;;;;4971310;28;20150;-81
2023/04/25 11:41:16;;;;;;;14.07;4.80;;;;;;;;;;4972653;28;20051;-79
2023/04/25 11:43:43;;;;;;;13.88;4.75;;;;;;;;;;4987511;28;20110;-80
2023/04/25 11:46:10;;;;;;;9.90;4.60;;;;;;;;;;4987864;28;20051;-81
2023/04/25 11:48:37;;;;;;;21.52;5.63;;;;;;;;;;4987726;28;20073;-82
2023/04/25 11:51:04;;;;;;;16.67;4.93;;;;;;;;;;4986758;28;20153;-80
2023/04/25 11:53:31;;;;;;;14.57;4.75;;;;;;;;;;4970950;28;20051;-82
2023/04/25 11:55:58;;;;;;;16.25;4.82;;;;;;;;;;4987265;28;20046;-80
2023/04/25 11:58:25;;;;;;;18.08;4.68;;;;;;;;;;4987525;28;20069;-80
2023/04/25 12:00:52;;;;;;;12.10;4.57;;;;;;;;;;5004171;28;20442;-78
2023/04/25 12:03:19;;;;;;;18.77;5.15;;;;;;;;;;4986734;28;20500;-81
2023/04/25 12:05:46;;;;;;;14.10;4.80;;;;;;;;;;5003853;28;20054;-81
2023/04/25 12:08:19;;;;;;;13.27;4.13;;;;;;;;;;5003994;28;20055;-80
2023/04/25 12:10:46;;;;;;;16.98;4.38;;;;;;;;;;4987291;28;20035;-82
2023/04/25 12:13:21;;;;;;;17.35;5.18;;;;;;;;;;5004230;28;20133;-80
2023/04/25 12:15:48;;;;;;;19.13;4.57;;;;;;;;;;4977407;28;20050;-82
2023/04/25 12:18:18;;;;;;;17.33;5.00;;;;;;;;;;5003976;28;20177;-82
2023/04/25 12:20:45;;;;;;;19.67;4.88;;;;;;;;;;4987470;28;20046;-80
2023/04/25 12:23:12;;;;;;;20.38;4.50;;;;;;;;;;4972239;28;20106;-78
2023/04/25 12:25:39;;;;;;;13.00;4.47;;;;;;;;;;5004377;28;20127;-80
2023/04/25 12:28:20;;;;;;;15.82;5.18;;;;;;;;;;5003160;28;20386;-82
2023/04/25 12:31:06;;;;;;;15.23;4.88;;;;;;;;;;4973535;28;20408;-81
2023/04/25 12:33:35;;;;;;;13.63;5.05;;;;;;;;;;5003240;28;20097;-80
2023/04/25 12:36:08;;;;;;;23.45;7.43;;;;;;;;;;4972817;28;20043;-82
2023/04/25 12:38:42;;;;;;;15.95;5.63;;;;;;;;;;4986857;28;20122;-81
2023/04/25 12:41:08;;;;;;;15.55;6.13;;;;;;;;;;4989663;28;20122;-81
2023/04/25 12:43:38;;;;;;;18.13;6.00;;;;;;;;;;5009814;28;20049;-81
2023/04/25 12:46:05;;;;;;;13.00;5.20;;;;;;;;;;5020390;28;20047;-78
2023/04/25 12:48:32;;;;;;;18.05;5.60;;;;;;;;;;5011966;28;20066;-79
2023/04/25 12:51:00;;;;;;;13.07;4.43;;;;;;;;;;5017287;28;20474;-80
2023/04/25 12:53:26;;;;;;;15.25;5.63;;;;;;;;;;5007891;28;20050;-82
2023/04/25 12:55:53;;;;;;;16.42;5.55;;;;;;;;;;5018389;28;20053;-83
2023/04/25 12:58:20;;;;;;;13.52;4.38;;;;;;;;;;5020935;28;20046;-80
2023/04/25 13:00:47;;;;;;;10.90;4.60;;;;;;;;;;5023699;28;20126;-80
2023/04/25 13:03:14;;;;;;;12.60;4.40;;;;;;;;;;5006596;28;20423;-81
2023/04/25 13:05:42;;;;;;;12.07;3.90;;;;;;;;;;5006161;28;20122;-80
2023/04/25 13:08:34;;;;;;;7.85;3.45;;;;;;;;;;4967730;28;20101;-81
2023/04/25 13:11:06;;;;;;;14.63;3.78;;;;;;;;;;4990249;28;20043;-81
2023/04/25 13:13:34;;;;;;;11.25;3.97;;;;;;;;;;4982174;28;20047;-83
2023/04/25 13:16:04;;;;;;;11.10;3.83;;;;;;;;;;4986739;28;20506;-82
2023/04/25 13:18:36;;;;;;;15.65;4.13;;;;;;;;;;4996036;28;20047;-80
2023/04/25 13:21:03;;;;;;;8.32;4.05;;;;;;;;;;4985283;28;20183;-82
2023/04/25 13:23:34;;;;;;;13.68;4.13;;;;;;;;;;4978746;28;20047;-82
2023/04/25 13:26:04;;;;;;;11.35;3.90;;;;;;;;;;4986153;28;20070;-80
2023/04/25 13:28:32;;;;;;;10.65;3.60;;;;;;;;;;4984806;28;20046;-82
2023/04/25 13:30:59;;;;;;;9.95;4.30;;;;;;;;;;4983857;28;20065;-82
2023/04/25 13:33:27;;;;;;;7.10;3.83;;;;;;;;;;4985250;28;20035;-81
2023/04/25 13:35:56;;;;;;;8.32;3.30;;;;;;;;;;5005243;28;20038;-79
2023/04/25 13:38:25;;;;;;;11.13;3.47;;;;;;;;;;5003616;28;20138;-81
2023/04/25 13:40:52;;;;;;;10.38;3.70;;;;;;;;;;5005384;28;20117;-82
2023/04/25 13:43:21;;;;;;;8.85;3.58;;;;;;;;;;4987917;28;20065;-80
2023/04/25 13:45:52;;;;;;;13.65;3.85;;;;;;;;;;4971827;28;20035;-84
2023/04/25 13:48:20;;;;;;;8.77;3.38;;;;;;;;;;4946761;28;20503;-82
2023/04/25 13:50:48;;;;;;;8.02;3.38;;;;;;;;;;4957532;28;20398;-82
2023/04/25 13:53:47;;;;;;;;;;;;;;;;;;;;;
2023/04/25 14:00:56;;;;;;;11.02;3.50;;;;;;;;;;4897991;29;20187;-83
2023/04/25 14:08:12;;;;;;;;;;;;;;;;;;;;;
2023/04/25 14:10:55;;;;;;;13.48;4.60;;;;;;;;;;4954655;28;20044;-80
2023/04/25 14:13:25;;;;;;;8.85;3.70;;;;;;;;;;4933915;29;20072;-82
2023/04/25 14:16:51;;;;;;;13.73;4.20;;;;;;;;;;4887140;29;20048;-82
2023/04/25 14:19:09;;;;;;;17.00;4.40;;;;;;;;;;4908378;29;20341;-84
2023/04/25 14:21:35;;;;;;;11.70;4.50;;;;;;;;;;4949527;29;20048;-82
2023/04/25 14:24:02;;;;;;;13.68;4.78;;;;;;;;;;4933292;29;20070;-82
2023/04/25 14:26:29;;;;;;;12.90;4.40;;;;;;;;;;4933942;29;20044;-82
2023/04/25 14:28:55;;;;;;;17.58;4.90;;;;;;;;;;4979493;28;20533;-81
2023/04/25 14:31:22;;;;;;;13.13;4.47;;;;;;;;;;4995105;28;20049;-83
2023/04/25 14:33:48;;;;;;;18.60;4.88;;;;;;;;;;5010867;28;20059;-81
2023/04/25 14:36:16;;;;;;;10.93;4.30;;;;;;;;;;4990196;28;20046;-80
2023/04/25 14:38:43;;;;;;;15.05;4.75;;;;;;;;;;5013068;28;20528;-84
2023/04/25 14:41:10;;;;;;;16.00;4.18;;;;;;;;;;5009488;28;20039;-83
2023/04/25 14:43:44;;;;;;;14.32;4.60;;;;;;;;;;5005137;28;20046;-80
2023/04/25 14:46:11;;;;;;;21.30;5.07;;;;;;;;;;4990595;28;20065;-81
2023/04/25 14:48:45;;;;;;;16.08;4.88;;;;;;;;;;5005807;28;20560;-81
2023/04/25 14:51:17;;;;;;;21.00;6.45;;;;;;;;;;5007515;28;20042;-82
2023/04/25 14:53:46;;;;;;;19.58;4.82;;;;;;;;;;5007272;28;20125;-81
2023/04/25 14:56:13;;;;;;;23.08;5.85;;;;;;;;;;4977678;28;20039;-83
2023/04/25 14:58:41;;;;;;;24.10;6.22;;;;;;;;;;4987411;28;20105;-81
2023/04/25 15:01:09;;;;;;;13.70;3.88;;;;;;;;;;4969714;28;20430;-81
2023/04/25 15:03:36;;;;;;;22.08;4.63;;;;;;;;;;4986200;28;20348;-81
2023/04/25 15:06:09;;;;;;;18.55;5.53;;;;;;;;;;4995552;28;20121;-83
2023/04/25 15:08:36;;;;;;;15.52;4.63;;;;;;;;;;4989332;28;20483;-83